Flight Track Log - Related Links

Times and Time Zones

All times are in EDT time to prevent confusion due to time zone crossing. See the N559LC flight status page for this flight to view local times or setup timezone preferences in your user account.

Time Position Orientation Groundspeed Altitude Reporting Facility
EDT Latitude Longitude Course Direction KTS MPH feet Rate Location/Type
Fri 10:14:10 AM 42.1992 -83.3492 208° Southwest 133 153 1,500  Level Cleveland Center
Fri 10:15:23 AM 42.1392 -83.3914 208° Southwest 233 268 5,100 3,429 Climbing Cleveland Center
Fri 10:16:09 AM 42.0981 -83.4125 201° Southwest 226 260 8,300 4,230 Climbing Cleveland Center
Fri 10:16:24 AM 42.0761 -83.4192 193° South 254 292 9,400 2,226 Climbing Cleveland Center
Fri 10:17:11 AM 42.0272 -83.4369 195° South 256 295 10,600 2,202 Climbing Cleveland Center
Fri 10:18:13 AM 41.9397 -83.4692 195° South 319 367 13,400 2,758 Climbing Cleveland Center
Fri 10:19:15 AM 41.8583 -83.4981 195° South 323 372 16,300 3,220 Climbing Cleveland Center
Fri 10:20:16 AM 41.7439 -83.5389 195° South 351 404 20,000 3,317 Climbing Cleveland Center
Fri 10:21:18 AM 41.6422 -83.5742 195° South 372 428 23,100 3,145 Climbing Cleveland Center
Fri 10:22:20 AM 41.5439 -83.6097 195° South 369 425 26,500 2,371 Climbing Cleveland Center
Fri 10:23:22 AM 41.4439 -83.6447 195° South 369 425 28,000 726 Climbing Cleveland Center
Fri 10:24:24 AM 41.3394 -83.6803 194° South 384 442 28,000  Level Cleveland Center
Fri 10:25:25 AM 41.2389 -83.7161 195° South 379 436 28,000  Level Cleveland Center
Fri 10:26:27 AM 41.1400 -83.7508 195° South 375 432 28,000  Level Cleveland Center
Fri 10:27:29 AM 41.0314 -83.7889 195° South 367 422 28,000  Level Indianapolis Center
Fri 10:28:31 AM 40.9317 -83.8228 194° South 368 423 28,000  Level Indianapolis Center
Fri 10:29:33 AM 40.8306 -83.8583 195° South 373 429 28,000  Level Indianapolis Center
Fri 10:30:35 AM 40.7089 -83.9000 195° South 374 430 28,000  Level Indianapolis Center
Fri 10:31:37 AM 40.6069 -83.9342 194° South 375 432 28,000 -629 Level Indianapolis Center
Fri 10:32:39 AM 40.5058 -83.9700 195° South 376 433 26,700 -968 Descending Indianapolis Center
Fri 10:33:41 AM 40.4064 -84.0028 194° South 375 432 26,000 -339 Descending Indianapolis Center
Fri 10:34:43 AM 40.3064 -84.0372 195° South 375 432 26,000  Level Indianapolis Center
Fri 10:35:45 AM 40.1933 -84.0936 201° Southwest 369 425 26,000  Level Indianapolis Center
Fri 10:36:47 AM 40.0981 -84.1444 202° Southwest 369 425 26,000  Level Indianapolis Center
Fri 10:37:49 AM 40.0031 -84.1939 202° Southwest 369 425 26,000  Level Indianapolis Center
Fri 10:38:51 AM 39.9078 -84.2431 202° Southwest 369 425 26,000  Level Indianapolis Center
Fri 10:39:53 AM 39.8122 -84.2942 202° Southwest 370 426 26,000  Level Indianapolis Center
Fri 10:40:55 AM 39.6964 -84.3531 201° Southwest 371 427 26,000 -194 Level Indianapolis Center
Fri 10:41:57 AM 39.6003 -84.4031 202° Southwest 372 428 25,600 -968 Descending Indianapolis Center
Fri 10:42:59 AM 39.5036 -84.4522 201° Southwest 372 428 24,000 -1,645 Descending Indianapolis Center
Fri 10:44:01 AM 39.4103 -84.5014 202° Southwest 371 427 22,200 -1,597 Descending Indianapolis Center
Fri 10:45:03 AM 39.3183 -84.5481 201° Southwest 362 417 20,700 -1,452 Descending Indianapolis Center
Fri 10:46:05 AM 39.2272 -84.5958 202° Southwest 358 412 19,200 -1,403 Descending Indianapolis Center
Fri 10:47:07 AM 39.1178 -84.6508 201° Southwest 357 411 17,800 -1,113 Descending Indianapolis Center
Fri 10:48:09 AM 39.0269 -84.6981 202° Southwest 355 409 16,900 -823 Descending Indianapolis Center
Fri 10:49:11 AM 38.9492 -84.7678 215° Southwest 345 397 16,100 -823 Descending Indianapolis Center
Fri 10:50:13 AM 38.8803 -84.8350 217° Southwest 335 386 15,200 -919 Descending Indianapolis Center
Fri 10:51:15 AM 38.7897 -84.9228 217° Southwest 337 388 14,200 -919 Descending Indianapolis Center
Fri 10:52:17 AM 38.7169 -84.9939 217° Southwest 335 386 13,300 -919 Descending Indianapolis Center
Fri 10:53:19 AM 38.6436 -85.0628 216° Southwest 329 379 12,300 -629 Descending Indianapolis Center
Fri 10:54:21 AM 38.5711 -85.1342 218° Southwest 329 379 12,000 -726 Descending Indianapolis Center
Fri 10:55:23 AM 38.5297 -85.2203 238° Southwest 302 348 10,800 -1,113 Descending Indianapolis Center
Fri 10:56:25 AM 38.5092 -85.3078 253° West 274 315 9,700 -1,113 Descending Indianapolis Center
Fri 10:57:27 AM 38.4828 -85.4083 251° West 257 296 8,500 -1,065 Descending Indianapolis Center
Fri 10:58:29 AM 38.4617 -85.4903 252° West 249 287 7,500 -919 Descending Indianapolis Center
Fri 10:59:31 AM 38.4381 -85.5700 249° West 244 281 6,600 -871 Descending Indianapolis Center
Fri 11:00:33 AM 38.4172 -85.6467 251° West 233 268 5,700 -871 Descending Indianapolis Center
Fri 11:01:35 AM 38.3981 -85.7244 253° West 232 267 4,800 -823 Descending Indianapolis Center
Fri 11:02:37 AM 38.3647 -85.7831 234° Southwest 229 264 4,000 -774 Descending Indianapolis Center
Fri 11:03:39 AM 38.3150 -85.7736 172° South 218 251 3,200 -823 Descending Indianapolis Center
Fri 11:04:41 AM 38.2706 -85.7589 165° South 189 217 2,300 -871 Descending Indianapolis Center
Fri 11:07:00 AM 38.1741 -85.7365 170° South  Level Estimated

Login

Don't have an account? Register now (free) for customized features, flight alerts, and more!